createdAt,value
2023-01-13T12:07:35.651Z,6.57
2023-01-13T12:10:13.579Z,7.22
2023-01-13T12:12:49.528Z,6.10
2023-01-13T12:15:21.547Z,6.30
2023-01-13T12:18:11.074Z,6.55
2023-01-13T12:20:39.608Z,6.13
2023-01-13T12:23:24.305Z,6.13
2023-01-13T12:25:56.659Z,5.65
2023-01-13T12:28:40.157Z,6.20
2023-01-13T12:31:09.632Z,6.40
2023-01-13T12:33:52.429Z,5.72
2023-01-13T12:36:36.115Z,6.28
2023-01-13T12:39:44.015Z,6.53
2023-01-13T12:42:39.482Z,6.80
2023-01-13T12:45:10.833Z,6.43
2023-01-13T12:47:43.668Z,6.38
2023-01-13T12:50:24.877Z,5.97
2023-01-13T12:55:25.789Z,5.82
2023-01-13T12:58:06.624Z,6.35
2023-01-13T13:00:40.957Z,6.22
2023-01-13T13:03:12.674Z,6.80
2023-01-13T13:08:32.462Z,7.28
2023-01-13T13:11:37.960Z,6.10
2023-01-13T13:14:15.840Z,6.80
2023-01-13T13:16:52.327Z,6.53
2023-01-13T13:19:21.440Z,6.70
2023-01-13T13:22:18.115Z,6.78
2023-01-13T13:24:49.768Z,6.50
2023-01-13T13:27:25.114Z,6.55
2023-01-13T13:30:15.510Z,6.75
2023-01-13T13:33:02.130Z,6.55
2023-01-13T13:35:52.185Z,6.20
2023-01-13T13:38:56.832Z,6.85
2023-01-13T13:41:45.414Z,6.45
2023-01-13T13:45:04.080Z,6.50
2023-01-13T13:47:39.724Z,6.63
2023-01-13T13:50:20.579Z,6.20
2023-01-13T13:53:12.221Z,7.50
2023-01-13T13:55:40.457Z,7.15
2023-01-13T13:58:15.757Z,10.52
2023-01-13T14:00:48.511Z,6.78
2023-01-13T14:03:26.171Z,6.20
2023-01-13T14:06:02.873Z,6.32
2023-01-13T14:08:35.143Z,6.03
2023-01-13T14:11:16.811Z,5.82
2023-01-13T14:13:45.439Z,6.72
2023-01-13T14:16:15.390Z,4.93
2023-01-13T14:18:48.280Z,5.35
2023-01-13T14:21:25.307Z,4.90
2023-01-13T14:23:59.485Z,5.32
2023-01-13T14:26:32.096Z,4.90
2023-01-13T14:29:01.865Z,5.20
2023-01-13T14:31:30.670Z,5.90
2023-01-13T14:34:01.599Z,5.70
2023-01-13T14:36:32.756Z,6.60
2023-01-13T14:39:04.355Z,6.72
2023-01-13T14:41:36.355Z,5.90
2023-01-13T14:44:13.373Z,5.43
2023-01-13T14:46:44.188Z,4.97
2023-01-13T14:49:15.812Z,5.85
2023-01-13T14:54:41.465Z,5.75
2023-01-13T14:57:36.086Z,5.72
2023-01-13T15:00:18.758Z,6.32
2023-01-13T15:02:59.214Z,6.20
2023-01-13T15:05:27.918Z,5.93
2023-01-13T15:07:57.266Z,5.25
2023-01-13T15:10:32.560Z,5.68
2023-01-13T15:13:03.741Z,6.93
2023-01-13T15:15:37.365Z,6.85
2023-01-13T15:18:15.029Z,6.28
2023-01-13T15:20:43.776Z,6.40
2023-01-13T15:23:12.308Z,5.93
2023-01-13T15:25:42.210Z,6.38
2023-01-13T15:28:20.884Z,5.80
2023-01-13T15:30:50.409Z,6.00
2023-01-13T15:33:19.125Z,7.25
2023-01-13T15:35:51.964Z,7.88
2023-01-13T15:38:23.890Z,6.43
2023-01-13T15:40:53.392Z,6.82
2023-01-13T15:43:41.829Z,7.18
2023-01-13T15:46:36.750Z,7.45
2023-01-13T15:49:12.898Z,8.77
2023-01-13T15:51:41.550Z,7.22
2023-01-13T15:54:09.751Z,7.85
2023-01-13T15:56:39.418Z,7.68
2023-01-13T15:59:15.780Z,7.45
2023-01-13T16:01:44.885Z,8.10
2023-01-13T16:04:13.092Z,9.63
2023-01-13T16:06:41.602Z,7.30
2023-01-13T16:09:13.070Z,8.50
2023-01-13T16:11:41.656Z,9.35
2023-01-13T16:14:09.940Z,8.18
2023-01-13T16:16:38.549Z,8.48
2023-01-13T16:19:06.854Z,7.20
2023-01-13T16:21:35.394Z,7.50
2023-01-13T16:24:03.647Z,7.40
2023-01-13T16:26:36.216Z,7.55
2023-01-13T16:29:04.844Z,8.55
2023-01-13T16:31:34.191Z,8.05
2023-01-13T16:34:03.201Z,6.90
2023-01-13T16:36:34.827Z,8.40
2023-01-13T16:39:03.725Z,8.63
2023-01-13T16:41:32.362Z,9.00
2023-01-13T16:44:06.092Z,9.93
2023-01-13T16:46:34.767Z,9.23
2023-01-13T16:49:05.202Z,9.60
2023-01-13T16:51:34.050Z,9.13
2023-01-13T16:54:02.292Z,9.77
2023-01-13T16:56:32.659Z,8.70
2023-01-13T16:59:12.169Z,8.63
2023-01-13T17:01:42.533Z,8.93
2023-01-13T17:04:19.001Z,9.25
2023-01-13T17:07:04.051Z,9.20
2023-01-13T17:09:32.361Z,9.70
2023-01-13T17:12:01.497Z,9.52
2023-01-13T17:14:29.821Z,9.45
2023-01-13T17:16:58.363Z,7.43
2023-01-13T17:19:26.986Z,8.63
2023-01-13T17:21:55.507Z,9.23
2023-01-13T17:24:25.696Z,8.15
2023-01-13T17:26:54.291Z,7.87
2023-01-13T17:29:25.863Z,6.80
2023-01-13T17:31:54.573Z,8.05
2023-01-13T17:34:23.129Z,7.10
2023-01-13T17:36:51.639Z,8.38
2023-01-13T17:39:22.362Z,9.25
2023-01-13T17:41:51.571Z,8.00
2023-01-13T17:44:21.933Z,8.88
2023-01-13T17:46:50.585Z,7.80
2023-01-13T17:49:21.922Z,7.15
2023-01-13T17:51:51.594Z,6.70
2023-01-13T17:54:20.136Z,7.28
2023-01-13T17:56:48.774Z,10.10
2023-01-13T17:59:18.942Z,12.60
2023-01-13T18:01:47.656Z,11.03
2023-01-13T18:04:17.623Z,11.30
2023-01-13T18:06:46.747Z,10.73
2023-01-13T18:09:15.058Z,9.75
2023-01-13T18:11:45.179Z,9.15
2023-01-13T18:14:14.344Z,8.95
2023-01-13T18:16:43.698Z,9.27
2023-01-13T18:19:30.567Z,8.60
2023-01-13T18:22:17.530Z,11.80
2023-01-13T18:25:04.293Z,14.07
2023-01-13T18:27:38.142Z,14.32
2023-01-13T18:30:07.336Z,15.55
2023-01-13T18:32:35.974Z,16.38
2023-01-13T18:35:10.488Z,15.77
2023-01-13T18:37:40.758Z,16.67
2023-01-13T18:40:11.484Z,16.67
2023-01-13T18:42:54.440Z,16.45
2023-01-13T18:45:28.974Z,16.40
2023-01-13T18:47:59.773Z,15.30
2023-01-13T18:50:28.656Z,16.77
2023-01-13T21:13:53.343Z,6.65
2023-01-13T21:16:22.093Z,7.03
2023-01-13T21:19:08.294Z,7.07
2023-01-13T21:21:37.138Z,6.20
2023-01-13T21:24:05.948Z,6.40
2023-01-13T21:26:34.937Z,6.50
2023-01-13T21:29:04.341Z,6.22
2023-01-13T21:31:32.934Z,6.32
2023-01-13T21:34:01.183Z,9.50
2023-01-13T21:36:29.689Z,8.48
2023-01-13T21:38:59.491Z,6.03
2023-01-13T21:41:46.371Z,6.47
2023-01-13T21:44:38.124Z,7.20
2023-01-13T21:47:45.360Z,6.30
2023-01-13T21:50:15.450Z,6.63
2023-01-13T21:52:44.637Z,5.22
2023-01-13T21:55:28.762Z,6.13
2023-01-13T21:58:01.178Z,6.00
2023-01-13T22:00:31.214Z,6.47
2023-01-13T22:03:00.338Z,5.93
2023-01-13T22:05:29.443Z,6.18
2023-01-13T22:07:57.989Z,6.47
2023-01-13T22:10:28.601Z,6.63
2023-01-13T22:12:59.229Z,6.82
2023-01-13T22:15:29.393Z,6.30
2023-01-13T22:17:58.095Z,6.63
2023-01-13T22:20:26.894Z,6.68
2023-01-13T22:22:54.892Z,6.60
2023-01-13T22:25:23.792Z,7.00
2023-01-13T22:27:56.012Z,6.65
2023-01-13T22:30:25.219Z,6.85
2023-01-13T22:32:53.398Z,6.70
2023-01-13T22:35:21.887Z,6.32
2023-01-13T22:37:50.062Z,5.88
2023-01-13T22:40:18.711Z,7.13
2023-01-13T22:42:47.050Z,5.90
2023-01-13T22:45:16.061Z,6.10
2023-01-13T22:47:44.325Z,5.90
2023-01-13T22:50:12.915Z,6.38
2023-01-13T22:52:41.145Z,6.78
2023-01-13T22:55:09.989Z,7.93
2023-01-13T22:57:47.380Z,7.50
